Time;durP1;ratioP1;P1;durP2;ratioP2;P2;SDS_P1;SDS_P2;PMS_P1;PMS_P2;Temp;Humidity;BMP_temperature;BMP_pressure;BME280_temperature;BME280_humidity;BME280_pressure;Samples;Min_cycle;Max_cycle;Signal;HPM_P1;HPM_P2
2023/02/13 07:02:11;;;;;;;;;38.50;33.50;;;;;17.63;43.68;103119.97;5118776;27;45468;-76
2023/02/13 07:04:36;;;;;;;;;39.50;31.75;;;;;17.96;44.19;103114.91;5107058;27;45529;-75
2023/02/13 07:07:02;;;;;;;;;36.50;32.00;;;;;18.48;44.21;103122.25;5118876;27;45482;-73
2023/02/13 07:09:27;;;;;;;;;36.25;30.50;;;;;19.04;44.35;103122.16;5123131;27;46415;-76
2023/02/13 07:11:52;;;;;;;;;31.75;31.50;;;;;19.59;44.52;103128.19;5116341;27;46167;-74
2023/02/13 07:14:17;;;;;;;;;35.50;33.00;;;;;20.14;44.22;103125.22;5113955;27;52226;-74
2023/02/13 07:16:43;;;;;;;;;37.75;31.50;;;;;20.60;44.07;103128.91;5104835;27;45430;-75
2023/02/13 07:19:08;;;;;;;;;37.50;33.00;;;;;21.01;43.28;103140.91;5091762;27;45400;-73
2023/02/13 07:21:33;;;;;;;;;40.75;33.50;;;;;21.35;43.58;103141.53;5121810;27;55563;-74
2023/02/13 07:23:59;;;;;;;;;39.50;33.25;;;;;21.64;43.03;103149.66;5111458;27;45429;-74
2023/02/13 07:26:25;;;;;;;;;34.00;31.75;;;;;21.87;42.55;103146.47;5111600;27;45478;-74
2023/02/13 07:28:51;;;;;;;;;32.75;31.25;;;;;22.13;42.35;103150.16;5104647;27;45586;-75
2023/02/13 07:31:17;;;;;;;;;39.25;34.75;;;;;22.34;42.36;103156.00;5091213;27;46185;-75
2023/02/13 07:33:42;;;;;;;;;31.50;28.50;;;;;22.58;42.28;103160.78;5106882;27;45472;-74
2023/02/13 07:36:07;;;;;;;;;35.75;31.50;;;;;22.79;42.09;103153.97;5110752;27;45427;-74
2023/02/13 07:38:33;;;;;;;;;31.00;30.00;;;;;22.96;41.74;103150.97;5111157;27;45437;-74
2023/02/13 07:40:59;;;;;;;;;36.75;33.75;;;;;23.13;41.59;103152.53;5101146;27;45627;-74
2023/02/13 07:43:25;;;;;;;;;34.50;31.75;;;;;23.24;41.52;103151.78;5110715;27;45509;-74
2023/02/13 07:45:54;;;;;;;;;38.00;33.25;;;;;23.33;41.14;103150.28;5111397;27;45420;-73
2023/02/13 07:48:22;;;;;;;;;37.75;30.75;;;;;23.44;41.23;103157.66;5114940;27;45473;-75
2023/02/13 07:50:48;;;;;;;;;35.00;32.50;;;;;23.52;40.85;103157.97;5101401;27;46098;-75
2023/02/13 07:53:13;;;;;;;;;33.25;31.50;;;;;23.56;40.80;103161.31;5097127;27;45464;-76
2023/02/13 07:55:39;;;;;;;;;29.75;28.75;;;;;23.59;40.63;103160.22;5111695;27;46434;-75
2023/02/13 07:58:04;;;;;;;;;35.00;33.00;;;;;23.64;40.65;103155.34;5121976;27;45522;-73
2023/02/13 08:00:29;;;;;;;;;31.00;29.25;;;;;23.72;40.58;103152.06;5104803;27;51009;-75
2023/02/13 08:02:58;;;;;;;;;31.50;30.50;;;;;23.78;40.61;103151.63;5104370;27;45595;-73
2023/02/13 08:05:23;;;;;;;;;35.50;33.75;;;;;23.83;39.89;103160.31;5101890;27;45420;-73
2023/02/13 08:07:49;;;;;;;;;35.00;31.00;;;;;23.86;40.19;103157.34;5104149;27;45347;-73
2023/02/13 08:12:58;;;;;;;;;6.75;6.75;;;;;23.95;40.06;103162.09;5089489;27;45399;-71
2023/02/13 08:15:24;;;;;;;;;30.75;30.00;;;;;24.00;39.74;103164.50;5099709;27;45442;-71
2023/02/13 08:17:50;;;;;;;;;34.25;28.00;;;;;24.02;39.75;103159.81;5096193;27;45535;-71
2023/02/13 08:20:15;;;;;;;;;34.00;30.25;;;;;24.03;39.51;103168.81;5081909;27;45457;-74
2023/02/13 08:22:40;;;;;;;;;31.50;30.25;;;;;24.03;39.51;103163.41;5096422;27;45537;-74
2023/02/13 08:25:07;;;;;;;;;35.25;30.75;;;;;24.02;39.71;103164.34;5083033;27;45764;-74
2023/02/13 08:27:33;;;;;;;;;29.75;27.50;;;;;24.06;39.48;103165.88;5088684;27;45428;-74
2023/02/13 08:29:58;;;;;;;;;29.75;29.00;;;;;24.08;39.71;103164.78;5094628;27;45824;-74
2023/02/13 08:32:24;;;;;;;;;29.50;29.25;;;;;24.11;39.74;103169.13;5090335;27;45453;-72
2023/02/13 08:34:50;;;;;;;;;29.50;28.00;;;;;24.14;39.75;103162.59;5082715;27;45343;-72
2023/02/13 08:37:16;;;;;;;;;37.25;31.75;;;;;24.17;39.57;103166.00;5098247;27;45454;-71
2023/02/13 08:39:42;;;;;;;;;30.25;29.25;;;;;24.21;39.40;103172.03;5081509;27;45460;-71
2023/02/13 08:42:07;;;;;;;;;29.50;29.50;;;;;24.24;39.48;103170.94;5097817;27;45607;-73
2023/02/13 08:44:32;;;;;;;;;30.25;28.75;;;;;24.28;39.35;103175.16;5087808;27;45515;-72
2023/02/13 08:47:00;;;;;;;;;27.75;27.50;;;;;24.28;39.08;103170.59;5087707;27;45319;-72
2023/02/13 08:49:26;;;;;;;;;28.25;28.25;;;;;24.33;39.12;103170.25;5085453;27;47131;-68
2023/02/13 08:51:51;;;;;;;;;29.75;28.50;;;;;24.37;38.96;103176.31;5095530;27;53744;-67
2023/02/13 08:54:16;;;;;;;;;26.00;24.25;;;;;24.40;39.11;103176.09;5095665;27;46349;-67
2023/02/13 08:56:42;;;;;;;;;29.50;28.00;;;;;24.43;38.98;103173.13;5097115;27;45412;-67
2023/02/13 08:59:07;;;;;;;;;21.25;21.25;;;;;24.47;38.96;103174.63;5095972;27;46619;-68
2023/02/13 09:01:32;;;;;;;;;31.00;29.25;;;;;24.46;39.12;103162.94;5087874;27;45441;-67
2023/02/13 09:03:58;;;;;;;;;32.50;30.50;;;;;24.53;38.72;103174.19;5084987;27;45952;-67
2023/02/13 09:06:27;;;;;;;;;28.00;26.25;;;;;24.55;38.99;103174.03;5089529;27;45492;-67
2023/02/13 09:08:53;;;;;;;;;27.75;23.75;;;;;24.55;39.36;103174.94;5079844;27;45703;-69
2023/02/13 09:11:21;;;;;;;;;28.50;28.25;;;;;24.54;39.06;103172.31;5093419;27;45479;-69
2023/02/13 09:13:47;;;;;;;;;29.75;26.75;;;;;24.59;38.84;103167.41;5093265;27;45584;-70
2023/02/13 09:16:12;;;;;;;;;30.50;26.25;;;;;24.64;38.93;103172.50;5096555;27;45339;-70
2023/02/13 09:18:38;;;;;;;;;30.00;27.00;;;;;24.68;38.85;103168.56;5087575;27;46337;-71
2023/02/13 09:21:06;;;;;;;;;36.75;29.00;;;;;24.70;38.65;103164.75;5079856;27;45536;-71
2023/02/13 09:23:33;;;;;;;;;27.50;27.50;;;;;24.73;38.61;103175.34;5089228;27;45431;-72
2023/02/13 09:26:00;;;;;;;;;28.75;26.75;;;;;24.74;38.55;103177.09;5096406;27;45285;-72
2023/02/13 09:28:26;;;;;;;;;26.75;24.75;;;;;24.73;38.38;103175.34;5106073;27;46181;-72
2023/02/13 09:30:51;;;;;;;;;29.25;29.00;;;;;24.78;38.59;103177.72;5093857;27;45351;-71
2023/02/13 09:33:16;;;;;;;;;21.75;21.75;;;;;24.80;38.51;103174.91;5081984;27;48479;-72
2023/02/13 09:35:45;;;;;;;;;23.00;23.00;;;;;24.83;38.46;103180.13;5075816;27;49831;-72
2023/02/13 09:38:11;;;;;;;;;26.75;26.75;;;;;24.86;38.39;103174.47;5104430;27;48088;-71
2023/02/13 09:40:44;;;;;;;;;22.50;20.75;;;;;24.90;38.37;103177.78;5084818;27;45721;-72
2023/02/13 09:43:21;;;;;;;;;24.75;23.75;;;;;24.88;37.97;103171.63;5101774;27;45517;-76
2023/02/13 09:45:49;;;;;;;;;29.50;28.25;;;;;24.86;38.00;103167.16;5095760;27;45454;-76
2023/02/13 09:48:29;;;;;;;;;21.75;21.75;;;;;24.92;37.87;103171.25;5074732;27;46213;-72
2023/02/13 09:50:56;;;;;;;;;25.25;23.25;;;;;24.91;37.95;103174.97;5079865;27;45328;-74
2023/02/13 09:53:24;;;;;;;;;28.00;26.00;;;;;24.93;38.18;103177.56;5114993;27;45389;-74
2023/02/13 09:56:02;;;;;;;;;27.50;23.50;;;;;24.98;38.00;103187.06;5109785;27;45405;-74
2023/02/13 09:58:48;;;;;;;;;20.50;20.50;;;;;25.03;38.31;103183.13;5104058;27;46345;-74
2023/02/13 10:01:20;;;;;;;;;25.50;23.25;;;;;25.06;37.89;103170.16;5101448;27;45547;-74
2023/02/13 10:03:54;;;;;;;;;24.75;24.25;;;;;25.13;38.05;103173.25;5108460;27;45410;-74
2023/02/13 10:06:28;;;;;;;;;28.75;27.00;;;;;25.17;37.75;103172.03;5099722;27;45418;-73
2023/02/13 10:09:17;;;;;;;;;23.25;21.00;;;;;25.21;37.87;103172.66;5097879;27;45426;-75
2023/02/13 10:12:01;;;;;;;;;24.00;24.00;;;;;25.21;37.59;103176.25;5094480;27;45407;-73
2023/02/13 10:14:47;;;;;;;;;24.00;20.00;;;;;25.22;37.47;103177.13;5083281;27;45483;-74
2023/02/13 10:17:18;;;;;;;;;26.25;23.25;;;;;25.20;37.79;103174.53;5085792;27;45443;-74
2023/02/13 10:19:53;;;;;;;;;22.00;22.00;;;;;25.19;37.98;103171.94;5080752;27;46217;-74
2023/02/13 10:22:29;;;;;;;;;20.00;20.00;;;;;25.20;37.66;103174.53;5074602;27;45475;-75
2023/02/13 10:25:03;;;;;;;;;22.75;20.75;;;;;25.25;37.56;103180.47;5078681;27;45420;-75
2023/02/13 10:27:37;;;;;;;;;23.50;22.25;;;;;25.33;38.00;103176.25;5084392;27;47625;-75
2023/02/13 10:30:19;;;;;;;;;26.25;23.75;;;;;25.43;37.75;103179.13;5076835;27;45477;-75
2023/02/13 10:32:48;;;;;;;;;24.00;21.25;;;;;25.50;37.52;103175.78;5093089;27;45453;-78
2023/02/13 10:35:26;;;;;;;;;23.50;21.00;;;;;25.57;37.23;103175.31;5086567;27;45529;-75
2023/02/13 10:37:54;;;;;;;;;20.00;20.00;;;;;25.61;37.79;103169.53;5079490;27;45930;-76
2023/02/13 10:40:22;;;;;;;;;21.50;20.25;;;;;25.69;37.16;103166.16;5090653;27;45822;-75
2023/02/13 10:43:07;;;;;;;;;24.00;24.00;;;;;25.77;37.33;103165.53;5088448;27;45453;-75
2023/02/13 10:45:57;;;;;;;;;22.50;22.50;;;;;25.85;37.19;103170.34;5093426;27;45418;-75
2023/02/13 10:48:47;;;;;;;;;22.75;19.00;;;;;25.92;37.11;103171.59;5081961;27;45426;-74
2023/02/13 10:51:15;;;;;;;;;19.33;18.33;;;;;25.98;37.02;103162.91;5088331;27;46271;-75
2023/02/13 10:53:51;;;;;;;;;21.67;17.67;;;;;26.03;37.39;103166.13;5106590;27;45387;-76
2023/02/13 10:56:24;;;;;;;;;20.00;18.00;;;;;26.09;37.34;103159.31;5110043;27;45405;-75
2023/02/13 10:59:08;;;;;;;;;23.25;19.00;;;;;26.15;37.47;103158.78;5092582;27;45478;-75
2023/02/13 11:02:08;;;;;;;;;21.50;18.25;;;;;26.20;36.97;103157.56;5104392;27;47244;-74
2023/02/13 11:04:33;;;;;;;;;20.00;18.00;;;;;26.23;36.76;103143.69;5083858;27;45690;-74
2023/02/13 11:07:09;;;;;;;;;18.67;17.67;;;;;26.25;37.05;103142.59;5072557;27;47022;-77
2023/02/13 11:09:40;;;;;;;;;18.33;18.33;;;;;26.28;37.58;103149.66;5082016;27;46385;-74
2023/02/13 11:12:24;;;;;;;;;20.67;20.67;;;;;26.31;37.15;103147.53;5056229;27;47939;-73
2023/02/13 11:14:58;;;;;;;;;20.33;17.33;;;;;26.31;36.85;103133.91;5089279;27;45680;-73
2023/02/13 11:17:25;;;;;;;;;17.00;16.33;;;;;26.32;36.71;103137.47;5090501;27;45467;-73
2023/02/13 11:19:55;;;;;;;;;19.00;18.00;;;;;26.35;37.08;103130.94;5088491;27;45447;-74
2023/02/13 11:22:31;;;;;;;;;22.67;18.33;;;;;26.39;36.59;103126.94;5089324;27;45665;-74
2023/02/13 11:25:05;;;;;;;;;19.00;18.00;;;;;26.43;36.44;103131.13;5090841;27;47009;-74
2023/02/13 11:27:36;;;;;;;;;15.67;15.67;;;;;26.48;36.55;103123.44;5077679;27;45526;-74
2023/02/13 11:30:25;;;;;;;;;16.33;16.33;;;;;26.58;36.89;103120.78;5100356;27;45501;-74
2023/02/13 11:33:01;;;;;;;;;20.33;20.33;;;;;26.69;36.45;103128.88;5085215;27;45867;-78
2023/02/13 11:35:26;;;;;;;;;19.50;18.00;;;;;26.78;36.18;103131.81;5088812;27;45696;-77
2023/02/13 11:38:09;;;;;;;;;26.25;25.00;;;;;26.84;36.33;103123.97;5091422;27;45538;-78
2023/02/13 11:40:35;;;;;;;;;29.50;27.25;;;;;26.84;36.24;103129.44;5090409;27;45423;-78
2023/02/13 11:43:01;;;;;;;;;31.25;28.50;;;;;26.76;35.36;103117.47;5087350;27;45370;-78
2023/02/13 11:45:26;;;;;;;;;29.00;26.50;;;;;26.71;36.04;103115.13;5087080;27;45402;-78
2023/02/13 11:47:55;;;;;;;;;27.25;26.50;;;;;26.61;35.61;103109.66;5089243;27;45709;-78
2023/02/13 11:50:26;;;;;;;;;30.50;29.25;;;;;26.54;35.77;103100.25;5091257;27;45352;-78
2023/02/13 11:53:06;;;;;;;;;31.50;28.75;;;;;26.53;35.13;103101.25;5077207;27;46820;-78
2023/02/13 11:55:41;;;;;;;;;29.50;26.75;;;;;26.53;35.63;103099.38;5078671;27;45433;-73
2023/02/13 11:58:09;;;;;;;;;33.50;29.50;;;;;26.55;35.31;103099.25;5082624;27;47176;-76
2023/02/13 12:00:38;;;;;;;;;28.50;27.00;;;;;26.54;35.33;103100.25;5086510;27;45533;-76
2023/02/13 12:03:26;;;;;;;;;30.50;29.00;;;;;26.55;35.22;103097.41;5094939;27;47207;-75
2023/02/13 12:06:02;;;;;;;;;20.75;20.75;;;;;26.56;34.85;103088.25;5089885;27;46349;-75
2023/02/13 12:08:30;;;;;;;;;26.00;22.67;;;;;26.59;35.09;103089.84;5095515;27;45610;-76
2023/02/13 12:10:58;;;;;;;;;24.00;23.25;;;;;26.62;35.15;103081.41;5097698;27;45439;-76
2023/02/13 12:13:32;;;;;;;;;19.67;19.67;;;;;26.65;34.81;103086.56;5105275;27;45490;-77
2023/02/13 12:16:33;;;;;;;;;25.75;22.25;;;;;26.69;35.25;103081.75;5096792;27;45836;-75
2023/02/13 12:19:03;;;;;;;;;22.00;21.00;;;;;26.71;35.04;103085.19;5096293;27;45465;-74
2023/02/13 12:22:08;;;;;;;;;17.67;17.00;;;;;26.75;35.20;103080.31;5097090;27;45331;-75
2023/02/13 12:24:43;;;;;;;;;22.67;17.67;;;;;26.79;34.73;103084.50;5093963;27;45366;-74
2023/02/13 12:27:27;;;;;;;;;18.33;16.33;;;;;26.80;35.13;103083.50;5097917;27;45330;-74
2023/02/13 12:30:11;;;;;;;;;16.67;16.33;;;;;26.82;34.53;103076.91;5093526;27;45473;-75
2023/02/13 12:32:55;;;;;;;;;20.33;19.00;;;;;26.82;34.64;103078.78;5079637;27;45245;-74
2023/02/13 12:35:44;;;;;;;;;21.33;21.33;;;;;26.86;34.35;103071.22;5085184;27;46156;-77
2023/02/13 12:38:28;;;;;;;;;16.00;14.33;;;;;26.83;34.75;103067.78;5078114;27;45505;-75
2023/02/13 12:41:02;;;;;;;;;20.00;20.00;;;;;26.76;34.04;103063.00;5076795;27;45587;-75
2023/02/13 12:43:47;;;;;;;;;15.67;15.33;;;;;26.65;34.35;103064.78;5091660;27;45545;-74
2023/02/13 12:46:45;;;;;;;;;14.67;14.67;;;;;26.54;34.46;103062.13;5075522;27;45506;-73
2023/02/13 12:49:48;;;;;;;;;16.33;16.33;;;;;26.46;34.61;103053.75;5039925;28;45488;-73
2023/02/13 12:52:35;;;;;;;;;18.33;17.67;;;;;26.38;34.19;103059.88;5046197;28;46100;-73
2023/02/13 12:55:21;;;;;;;;;21.00;21.00;;;;;26.27;34.26;103058.06;5051214;28;45635;-75
2023/02/13 12:58:12;;;;;;;;;16.00;15.00;;;;;26.18;34.31;103057.84;5049631;28;45817;-73
2023/02/13 13:00:40;;;;;;;;;18.33;16.67;;;;;26.12;34.47;103061.06;5050821;28;45554;-72
2023/02/13 13:03:27;;;;;;;;;19.33;17.33;;;;;26.08;34.56;103056.03;5045736;28;45388;-72
2023/02/13 13:06:21;;;;;;;;;16.67;16.67;;;;;26.08;34.07;103056.03;5039180;28;45497;-71
2023/02/13 13:09:19;;;;;;;;;21.33;18.00;;;;;26.10;34.36;103057.63;5048320;28;45568;-72
2023/02/13 13:11:59;;;;;;;;;15.00;15.00;;;;;26.14;33.99;103045.50;4965643;28;45632;-74
2023/02/13 13:14:50;;;;;;;;;16.67;12.67;;;;;26.18;34.65;103046.97;4962484;28;45513;-74
2023/02/13 13:17:24;;;;;;;;;15.33;14.33;;;;;26.24;34.25;103042.81;4974012;28;45463;-74
2023/02/13 13:19:59;;;;;;;;;14.67;14.33;;;;;26.28;33.91;103041.59;4971885;28;46130;-73
2023/02/13 13:22:42;;;;;;;;;15.67;15.67;;;;;26.34;33.98;103047.50;4981785;28;45368;-74
2023/02/13 13:25:26;;;;;;;;;11.00;10.00;;;;;26.38;34.43;103038.97;5005182;28;45455;-72
2023/02/13 13:27:58;;;;;;;;;15.67;15.67;;;;;26.43;34.57;103035.84;5014718;28;45573;-73
2023/02/13 13:30:34;;;;;;;;;19.00;16.67;;;;;26.48;34.33;103027.28;5012283;28;45474;-74
2023/02/13 13:33:04;;;;;;;;;13.00;11.00;;;;;26.52;34.50;103032.31;5014307;28;45481;-73
2023/02/13 13:35:30;;;;;;;;;16.00;15.00;;;;;26.55;34.44;103034.78;5013660;28;45385;-72
2023/02/13 13:38:11;;;;;;;;;18.33;14.33;;;;;26.57;34.03;103023.75;5015408;28;45678;-73
2023/02/13 13:40:49;;;;;;;;;19.00;16.67;;;;;26.56;33.74;103019.28;5012592;28;45434;-73
2023/02/13 13:43:21;;;;;;;;;18.00;13.33;;;;;26.56;34.51;103022.00;5026146;28;45767;-73
2023/02/13 13:46:16;;;;;;;;;12.00;9.00;;;;;26.57;34.55;103019.16;5012901;28;45716;-72
2023/02/13 13:48:53;;;;;;;;;15.00;12.33;;;;;26.61;33.84;103016.16;5072537;27;47085;-72
2023/02/13 13:51:19;;;;;;;;;12.33;12.33;;;;;26.62;34.38;103010.59;5076441;27;46029;-73
2023/02/13 13:54:07;;;;;;;;;17.00;14.00;;;;;26.66;34.46;103012.06;5080854;27;45385;-72
2023/02/13 13:56:51;;;;;;;;;12.00;12.00;;;;;26.70;34.05;103021.66;5081858;27;45383;-72
2023/02/13 13:59:19;;;;;;;;;14.00;14.00;;;;;26.72;34.44;103010.63;5087937;27;45439;-72
2023/02/13 14:01:44;;;;;;;;;9.00;9.00;;;;;26.75;33.73;103013.09;5095608;27;45358;-72
2023/02/13 14:04:31;;;;;;;;;12.33;11.33;;;;;26.76;33.75;103012.09;5078992;27;48803;-72
2023/02/13 14:06:56;;;;;;;;;14.67;13.00;;;;;26.77;33.70;103007.50;5082469;27;45473;-72
2023/02/13 14:09:40;;;;;;;;;13.00;13.00;;;;;26.77;34.20;103013.81;5094697;27;45451;-72
2023/02/13 14:12:29;;;;;;;;;16.00;14.00;;;;;26.75;33.88;103004.03;5093513;27;45987;-73
2023/02/13 14:14:59;;;;;;;;;12.33;11.00;;;;;26.72;33.79;103004.34;5078488;27;45492;-72
2023/02/13 14:17:43;;;;;;;;;13.00;12.00;;;;;26.66;33.79;103003.00;5089972;27;45727;-72
2023/02/13 14:20:32;;;;;;;;;13.50;12.50;;;;;26.60;33.83;102998.97;5088205;27;46255;-71
2023/02/13 14:23:26;;;;;;;;;11.33;11.33;;;;;26.56;34.27;103005.66;5074579;27;45577;-72
2023/02/13 14:26:16;;;;;;;;;11.00;11.00;;;;;26.53;34.30;103006.78;5078731;27;45415;-72
2023/02/13 14:28:56;;;;;;;;;11.00;11.00;;;;;26.51;34.36;103006.09;5080662;27;45572;-75
2023/02/13 14:31:26;;;;;;;;;12.00;11.00;;;;;26.51;33.91;103007.94;5085120;27;45522;-75
2023/02/13 14:34:03;;;;;;;;;12.00;11.33;;;;;26.47;33.99;102998.28;5082122;27;46441;-75
2023/02/13 14:36:41;;;;;;;;;16.33;13.67;;;;;26.47;33.91;103004.63;5082486;27;45425;-76
2023/02/13 14:39:22;;;;;;;;;14.00;12.33;;;;;26.45;34.27;103003.91;5082808;27;45590;-76
2023/02/13 14:41:52;;;;;;;;;15.67;13.67;;;;;26.42;33.85;102999.59;5077558;27;45438;-74
2023/02/13 14:44:24;;;;;;;;;14.33;12.00;;;;;26.34;34.05;102995.78;5090975;27;45469;-76
2023/02/13 14:46:51;;;;;;;;;16.00;12.33;;;;;26.24;34.13;102993.84;5093549;27;45479;-75
2023/02/13 14:49:30;;;;;;;;;15.33;14.00;;;;;26.17;33.98;102996.22;5089138;27;45417;-75
2023/02/13 14:52:04;;;;;;;;;13.67;13.67;;;;;26.16;34.33;102999.94;5084683;27;45428;-74
2023/02/13 14:54:34;;;;;;;;;12.67;11.00;;;;;26.10;33.83;102986.88;5086728;27;45504;-74
2023/02/13 14:57:13;;;;;;;;;12.67;12.67;;;;;26.05;33.95;102987.28;5088149;27;45445;-74
2023/02/13 14:59:45;;;;;;;;;12.33;12.33;;;;;26.03;34.09;102989.25;5093044;27;45416;-74
2023/02/13 15:02:27;;;;;;;;;13.00;11.33;;;;;26.02;34.07;102984.81;5078414;27;45516;-74
2023/02/13 15:05:02;;;;;;;;;9.67;9.67;;;;;26.01;34.08;102988.53;5077989;27;46075;-75
2023/02/13 15:07:32;;;;;;;;;13.00;11.33;;;;;26.04;34.25;102993.69;5094990;27;45438;-74
2023/02/13 15:10:19;;;;;;;;;14.33;10.67;;;;;26.07;34.11;102995.28;5091938;27;45561;-76
2023/02/13 15:12:45;;;;;;;;;12.00;11.33;;;;;26.12;34.30;103001.19;5075983;27;45344;-77
2023/02/13 15:15:25;;;;;;;;;15.33;13.00;;;;;26.15;33.92;102992.78;5075433;27;45997;-78
2023/02/13 15:17:58;;;;;;;;;12.67;11.33;;;;;26.16;34.21;102980.88;5091446;27;45441;-77
2023/02/13 15:20:27;;;;;;;;;13.00;12.00;;;;;26.29;34.06;102999.78;5080465;27;45413;-76
2023/02/13 15:22:53;;;;;;;;;10.33;10.33;;;;;26.34;34.45;102995.78;5077248;27;45397;-76
2023/02/13 15:25:28;;;;;;;;;10.00;10.00;;;;;26.40;34.51;103000.72;5082902;27;46477;-76
2023/02/13 15:27:55;;;;;;;;;9.00;9.00;;;;;26.44;34.04;102999.44;5083637;27;45680;-75
2023/02/13 15:30:25;;;;;;;;;12.67;11.00;;;;;26.47;34.45;103001.03;5084724;27;45509;-75
2023/02/13 15:33:00;;;;;;;;;10.67;10.67;;;;;26.48;34.17;102998.16;5084074;27;45531;-75
2023/02/13 15:35:33;;;;;;;;;11.67;10.67;;;;;26.47;34.42;103001.03;5078363;27;46927;-75
2023/02/13 15:38:15;;;;;;;;;12.67;12.67;;;;;26.45;33.66;102998.47;5090460;27;45451;-75
2023/02/13 15:40:42;;;;;;;;;11.33;10.00;;;;;26.44;33.97;103003.03;5080198;27;45683;-75
2023/02/13 15:43:27;;;;;;;;;13.00;12.00;;;;;26.43;34.63;102997.72;5090939;27;45544;-76
2023/02/13 15:45:57;;;;;;;;;11.33;9.67;;;;;26.42;34.44;102999.59;5092484;27;45598;-74
2023/02/13 15:48:23;;;;;;;;;11.33;11.33;;;;;26.37;34.56;102998.25;5096534;27;45465;-74
2023/02/13 15:50:48;;;;;;;;;10.67;10.67;;;;;26.39;34.02;102998.97;5088023;27;45418;-71
2023/02/13 15:53:16;;;;;;;;;13.33;12.00;;;;;26.35;34.18;102998.38;5077458;27;45399;-74
2023/02/13 15:55:58;;;;;;;;;12.67;12.67;;;;;26.30;34.01;102993.34;5094230;27;45465;-72
2023/02/13 15:58:29;;;;;;;;;13.00;13.00;;;;;26.28;34.13;102992.59;5078173;27;45432;-74
2023/02/13 16:00:55;;;;;;;;;14.00;14.00;;;;;26.27;33.75;102988.16;5097732;27;45388;-73
2023/02/13 16:03:24;;;;;;;;;13.67;12.33;;;;;26.33;34.06;103003.13;5079321;27;45385;-72
2023/02/13 16:05:49;;;;;;;;;10.33;10.33;;;;;26.39;33.79;102994.41;5077263;27;46166;-72
2023/02/13 16:08:30;;;;;;;;;15.67;12.33;;;;;26.47;33.73;102991.00;5081853;27;45395;-73
2023/02/13 16:11:24;;;;;;;;;13.33;13.00;;;;;26.52;33.70;102999.63;5082746;27;45526;-72
2023/02/13 16:14:07;;;;;;;;;15.67;13.00;;;;;26.49;34.01;102996.31;5085722;27;45450;-72
2023/02/13 16:16:41;;;;;;;;;13.00;13.00;;;;;26.46;33.65;102999.31;5083946;27;45519;-72
2023/02/13 16:19:27;;;;;;;;;13.67;12.67;;;;;26.45;33.71;102998.47;5077688;27;45519;-72
2023/02/13 16:21:55;;;;;;;;;14.00;13.67;;;;;26.49;33.68;102997.19;5091686;27;45322;-73
2023/02/13 16:24:21;;;;;;;;;13.67;13.67;;;;;26.55;33.51;102996.66;5085121;27;45979;-74
2023/02/13 16:26:48;;;;;;;;;14.33;13.33;;;;;26.62;33.69;103002.41;5087698;27;45526;-72
2023/02/13 16:29:19;;;;;;;;;13.33;11.33;;;;;26.68;33.40;102999.16;5078014;27;45741;-72
2023/02/13 16:31:46;;;;;;;;;10.33;10.33;;;;;26.74;33.79;102999.59;5090643;27;45554;-72
2023/02/13 16:34:30;;;;;;;;;13.00;11.00;;;;;26.78;33.90;103003.78;5096787;27;45404;-72
2023/02/13 16:36:56;;;;;;;;;13.00;11.33;;;;;26.79;33.76;102992.75;5088149;27;45526;-76
2023/02/13 16:39:27;;;;;;;;;13.00;11.33;;;;;26.80;33.54;102999.91;5095042;27;45358;-78
2023/02/13 16:41:53;;;;;;;;;12.33;10.67;;;;;26.81;33.31;102995.34;5092933;27;45701;-74
2023/02/13 16:44:23;;;;;;;;;14.00;14.00;;;;;26.80;33.63;103007.22;5084154;27;45522;-75
2023/02/13 16:47:00;;;;;;;;;16.67;16.67;;;;;26.74;33.32;103003.19;5097749;27;46130;-77
2023/02/13 16:49:29;;;;;;;;;17.00;14.00;;;;;26.63;33.45;102998.69;5093869;27;45685;-77
2023/02/13 16:52:20;;;;;;;;;14.67;14.33;;;;;26.55;33.55;102999.38;5096835;27;45858;-77
2023/02/13 16:54:58;;;;;;;;;11.33;10.33;;;;;26.44;33.37;102986.69;5088813;27;45541;-77
2023/02/13 16:57:29;;;;;;;;;16.33;14.67;;;;;26.42;33.24;102996.00;5076965;27;46299;-76
2023/02/13 17:00:03;;;;;;;;;13.67;13.00;;;;;26.36;33.34;103002.81;5097701;27;45478;-76
2023/02/13 17:02:33;;;;;;;;;12.33;12.33;;;;;26.28;33.50;102992.59;5096069;27;45893;-77
2023/02/13 17:05:08;;;;;;;;;12.67;11.00;;;;;26.21;33.32;102996.84;5097041;27;45333;-77
2023/02/13 17:07:37;;;;;;;;;14.33;11.67;;;;;26.11;32.68;102999.47;5090339;27;46054;-77
2023/02/13 17:10:07;;;;;;;;;14.33;14.33;;;;;25.99;33.18;103000.53;5093224;27;45893;-77
2023/02/13 17:12:37;;;;;;;;;13.00;12.00;;;;;25.89;32.98;102989.56;5102182;27;45564;-77
2023/02/13 17:15:06;;;;;;;;;14.33;13.67;;;;;25.83;33.05;102999.09;5096823;27;45403;-77
2023/02/13 17:17:31;;;;;;;;;13.67;12.67;;;;;25.79;32.84;102993.06;5096242;27;46150;-77
2023/02/13 17:19:57;;;;;;;;;10.67;10.33;;;;;25.77;32.88;102999.63;5112557;27;45420;-77
2023/02/13 17:22:34;;;;;;;;;12.67;11.33;;;;;25.76;33.38;103000.63;5096251;27;45527;-78
2023/02/13 17:25:01;;;;;;;;;13.00;13.00;;;;;25.73;33.04;103009.91;5096208;27;45480;-80
2023/02/13 17:27:26;;;;;;;;;16.33;15.33;;;;;25.70;32.91;103007.44;5086782;27;47661;-76
2023/02/13 17:29:52;;;;;;;;;16.33;15.00;;;;;25.70;32.85;103010.16;5095659;27;45476;-77
2023/02/13 17:32:21;;;;;;;;;14.67;13.67;;;;;25.69;32.83;103010.28;5095883;27;45483;-76
2023/02/13 17:34:46;;;;;;;;;19.33;15.67;;;;;25.67;33.10;103015.88;5075044;28;45463;-76
2023/02/13 17:37:20;;;;;;;;;15.33;14.33;;;;;25.65;33.05;103018.72;5085466;27;47124;-74
2023/02/13 17:39:46;;;;;;;;;21.33;15.00;;;;;25.64;32.96;103022.44;5094876;27;45532;-73
2023/02/13 17:42:27;;;;;;;;;14.00;13.67;;;;;25.62;33.07;103020.81;5079939;27;45564;-74
2023/02/13 17:44:55;;;;;;;;;18.33;16.00;;;;;25.60;33.37;103026.41;5084580;27;45546;-73
2023/02/13 17:47:21;;;;;;;;;15.00;14.00;;;;;25.60;33.21;103030.97;5076040;27;45672;-74
2023/02/13 17:49:46;;;;;;;;;12.67;12.00;;;;;25.62;33.03;103028.97;5092047;27;45433;-73
2023/02/13 17:52:25;;;;;;;;;13.67;13.67;;;;;25.65;33.17;103026.00;5095233;27;45528;-74
2023/02/13 17:54:51;;;;;;;;;15.33;14.00;;;;;25.67;33.42;103024.03;5081857;27;45511;-75
2023/02/13 17:57:17;;;;;;;;;13.67;13.67;;;;;25.56;33.27;103005.00;5093714;27;46011;-74
2023/02/13 17:59:43;;;;;;;;;16.00;12.00;;;;;25.67;33.25;103023.16;5080044;27;45773;-75
2023/02/13 18:02:26;;;;;;;;;19.67;17.67;;;;;25.67;33.01;103021.31;5092341;27;45533;-73
2023/02/13 18:04:52;;;;;;;;;12.67;11.00;;;;;25.67;33.17;103029.47;5090881;27;45469;-73
2023/02/13 18:07:20;;;;;;;;;15.67;15.67;;;;;25.68;33.25;103036.63;5093794;27;45429;-74
2023/02/13 18:09:46;;;;;;;;;14.33;14.33;;;;;25.71;33.72;103030.91;5090057;27;45553;-74
2023/02/13 18:12:22;;;;;;;;;14.00;14.00;;;;;25.76;33.37;103034.09;5086669;27;45512;-73
2023/02/13 18:14:48;;;;;;;;;14.33;12.33;;;;;25.81;33.43;103030.16;5093349;27;45363;-73
2023/02/13 18:17:13;;;;;;;;;12.00;11.00;;;;;25.83;33.70;103037.19;5093722;27;45485;-73
2023/02/13 18:19:40;;;;;;;;;14.33;13.00;;;;;25.85;33.59;103029.78;5082484;27;45501;-73
2023/02/13 18:22:07;;;;;;;;;15.67;14.33;;;;;25.89;33.53;103038.53;5094275;27;45527;-73
2023/02/13 18:24:34;;;;;;;;;16.67;13.33;;;;;25.87;33.80;103026.94;5088137;27;45622;-74
2023/02/13 18:27:02;;;;;;;;;14.33;12.67;;;;;25.97;33.77;103041.47;5085495;27;46047;-73
2023/02/13 18:29:27;;;;;;;;;16.67;14.00;;;;;26.02;33.27;103041.06;5086220;27;45475;-74
2023/02/13 18:31:53;;;;;;;;;16.33;15.33;;;;;26.05;33.62;103032.66;5082460;27;45958;-74
2023/02/13 18:34:19;;;;;;;;;17.33;14.67;;;;;26.05;33.08;103038.09;5080805;27;45339;-75
2023/02/13 18:36:45;;;;;;;;;14.67;13.67;;;;;26.03;33.47;103043.66;5088057;27;45452;-73
2023/02/13 18:39:10;;;;;;;;;11.33;11.33;;;;;26.02;33.35;103028.34;5090786;27;45466;-74